createdAt,value
2022-10-02T00:01:12.757Z,11.18
2022-10-02T00:06:22.409Z,11.17
2022-10-02T00:11:27.502Z,11.21
2022-10-02T00:16:48.412Z,11.20
2022-10-02T00:21:59.251Z,11.20
2022-10-02T00:27:04.939Z,11.22
2022-10-02T00:32:27.201Z,11.19
2022-10-02T00:37:41.117Z,11.16
2022-10-02T00:43:05.801Z,11.07
2022-10-02T00:48:19.748Z,10.99
2022-10-02T00:53:41.849Z,10.92
2022-10-02T00:59:11.896Z,10.88
2022-10-02T01:04:18.393Z,10.94
2022-10-02T01:09:22.834Z,10.95
2022-10-02T01:14:41.750Z,10.93
2022-10-02T01:19:45.928Z,10.89
2022-10-02T01:24:54.677Z,10.83
2022-10-02T01:30:07.510Z,10.79
2022-10-02T01:35:12.435Z,10.77
2022-10-02T01:40:26.237Z,10.76
2022-10-02T01:45:53.852Z,10.77
2022-10-02T01:51:04.371Z,10.76
2022-10-02T01:56:16.367Z,10.74
2022-10-02T02:01:25.313Z,10.74
2022-10-02T02:06:35.200Z,10.71
2022-10-02T02:11:41.473Z,10.67
2022-10-02T02:16:51.764Z,10.65
2022-10-02T02:22:10.067Z,10.64
2022-10-02T02:27:18.066Z,10.64
2022-10-02T02:32:23.709Z,10.67
2022-10-02T02:37:26.718Z,10.72
2022-10-02T02:42:32.502Z,10.77
2022-10-02T02:47:44.392Z,10.79
2022-10-02T02:52:55.604Z,10.79
2022-10-02T02:58:07.227Z,10.78
2022-10-02T03:03:11.472Z,10.80
2022-10-02T03:08:36.534Z,10.79
2022-10-02T03:13:49.510Z,10.79
2022-10-02T03:19:01.388Z,10.78
2022-10-02T03:24:05.683Z,10.78
2022-10-02T03:29:18.977Z,10.76
2022-10-02T03:34:20.991Z,10.75
2022-10-02T03:39:31.058Z,10.72
2022-10-02T03:44:38.840Z,10.71
2022-10-02T03:49:46.424Z,10.69
2022-10-02T03:54:53.666Z,10.65
2022-10-02T04:00:08.775Z,10.65
2022-10-02T04:05:35.685Z,10.66
2022-10-02T04:10:46.764Z,10.69
2022-10-02T04:16:07.283Z,10.74
2022-10-02T04:21:17.908Z,10.77
2022-10-02T04:26:27.479Z,10.79
2022-10-02T04:31:31.609Z,10.77
2022-10-02T04:37:03.845Z,10.79
2022-10-02T04:42:27.273Z,10.79
2022-10-02T04:47:59.471Z,10.74
2022-10-02T04:53:14.809Z,10.71
2022-10-02T04:58:46.653Z,10.71
2022-10-02T05:04:22.567Z,10.72
2022-10-02T05:09:40.164Z,10.80
2022-10-02T05:15:23.267Z,10.80
2022-10-02T05:20:32.868Z,10.80
2022-10-02T05:25:37.537Z,10.81
2022-10-02T05:30:49.518Z,10.82
2022-10-02T05:36:12.204Z,10.80
2022-10-02T05:41:21.976Z,10.77
2022-10-02T05:46:34.635Z,10.72
2022-10-02T05:52:16.892Z,10.69
2022-10-02T05:57:32.978Z,10.66
2022-10-02T06:02:46.145Z,10.68
2022-10-02T06:07:53.189Z,10.78
2022-10-02T06:13:11.408Z,10.85
2022-10-02T06:18:19.737Z,10.84
2022-10-02T06:23:28.153Z,10.82
2022-10-02T06:28:46.738Z,10.78
2022-10-02T06:33:48.394Z,10.86
2022-10-02T06:38:59.083Z,10.96
2022-10-02T06:44:19.168Z,11.07
2022-10-02T06:49:40.948Z,11.20
2022-10-02T06:55:40.834Z,11.40
2022-10-02T07:00:54.052Z,11.66
2022-10-02T07:06:01.368Z,11.93
2022-10-02T07:11:21.968Z,12.01
2022-10-02T07:16:38.663Z,11.89
2022-10-02T07:21:43.434Z,11.77
2022-10-02T07:26:49.845Z,11.86
2022-10-02T07:32:10.967Z,12.06
2022-10-02T07:37:22.181Z,12.38
2022-10-02T07:42:32.148Z,12.58
2022-10-02T07:47:48.964Z,12.68
2022-10-02T07:53:12.297Z,12.70
2022-10-02T07:58:18.887Z,12.67
2022-10-02T08:03:26.039Z,12.56
2022-10-02T08:08:38.745Z,12.46
2022-10-02T08:13:52.804Z,12.38
2022-10-02T08:19:37.156Z,12.52
2022-10-02T08:25:04.433Z,12.92
2022-10-02T08:30:11.717Z,13.20
2022-10-02T08:35:19.139Z,13.07
2022-10-02T08:40:23.112Z,12.86
2022-10-02T08:46:02.560Z,12.68
2022-10-02T08:51:11.438Z,12.80
2022-10-02T08:56:30.822Z,13.04
2022-10-02T09:01:43.613Z,13.04
2022-10-02T09:07:10.308Z,13.26
2022-10-02T09:13:14.639Z,13.19
2022-10-02T09:18:31.989Z,13.17
2022-10-02T09:24:11.329Z,13.42
2022-10-02T09:29:34.613Z,13.69
2022-10-02T09:35:02.155Z,13.90
2022-10-02T09:40:32.572Z,14.04
2022-10-02T09:45:56.249Z,14.14
2022-10-02T09:51:36.916Z,14.26
2022-10-02T09:57:11.613Z,14.35
2022-10-02T10:02:47.967Z,14.54
2022-10-02T10:08:11.870Z,14.79
2022-10-02T10:13:20.414Z,15.11
2022-10-02T10:19:02.419Z,15.56
2022-10-02T10:24:34.848Z,15.59
2022-10-02T10:29:53.631Z,15.69
2022-10-02T10:34:55.255Z,15.61
2022-10-02T10:40:23.984Z,15.95
2022-10-02T10:46:02.543Z,16.13
2022-10-02T10:51:30.669Z,16.36
2022-10-02T10:56:38.518Z,16.60
2022-10-02T11:02:18.011Z,16.96
2022-10-02T11:07:47.767Z,16.47
2022-10-02T11:13:12.550Z,16.58
2022-10-02T11:18:31.499Z,16.59
2022-10-02T11:23:54.167Z,16.42
2022-10-02T11:29:34.707Z,16.19
2022-10-02T11:34:55.472Z,15.91
2022-10-02T11:40:21.545Z,17.23
2022-10-02T11:46:21.597Z,18.54
2022-10-02T11:51:39.366Z,18.79
2022-10-02T11:57:07.455Z,18.60
2022-10-02T12:02:36.211Z,18.80
2022-10-02T12:07:56.423Z,19.53
2022-10-02T12:13:16.384Z,20.42
2022-10-02T12:18:39.723Z,21.23
2022-10-02T12:24:25.692Z,21.39
2022-10-02T12:29:41.902Z,20.73
2022-10-02T12:34:56.330Z,19.17
2022-10-02T12:40:35.139Z,19.38
2022-10-02T12:46:07.965Z,19.37
2022-10-02T12:51:35.409Z,20.20
2022-10-02T12:56:55.597Z,20.68
2022-10-02T13:02:59.978Z,21.38
2022-10-02T13:08:19.952Z,21.27
2022-10-02T13:13:59.417Z,20.24
2022-10-02T13:19:30.480Z,22.70
2022-10-02T13:24:43.580Z,23.54
2022-10-02T13:30:23.027Z,24.82
2022-10-02T13:35:30.733Z,25.90
2022-10-02T13:40:44.887Z,25.85
2022-10-02T13:46:13.430Z,26.06
2022-10-02T13:51:34.344Z,25.69
2022-10-02T13:56:48.715Z,25.53
2022-10-02T14:02:16.727Z,24.45
2022-10-02T14:07:25.703Z,22.55
2022-10-02T14:12:39.969Z,21.26
2022-10-02T14:17:53.753Z,20.44
2022-10-02T14:23:15.274Z,19.63
2022-10-02T14:28:37.730Z,18.98
2022-10-02T14:34:03.510Z,20.26
2022-10-02T14:39:27.952Z,19.72
2022-10-02T14:44:44.626Z,18.93
2022-10-02T14:50:03.858Z,19.50
2022-10-02T14:56:01.372Z,19.58
2022-10-02T15:01:21.495Z,21.08
2022-10-02T15:06:51.727Z,21.45
2022-10-02T15:12:10.097Z,20.76
2022-10-02T15:17:51.126Z,19.72
2022-10-02T15:23:03.221Z,19.13
2022-10-02T15:28:36.228Z,18.70
2022-10-02T15:34:14.091Z,18.16
2022-10-02T15:39:41.910Z,17.88
2022-10-02T15:44:52.515Z,17.74
2022-10-02T15:50:20.871Z,17.45
2022-10-02T15:55:38.729Z,17.30
2022-10-02T16:01:24.515Z,17.15
2022-10-02T16:07:04.994Z,16.91
2022-10-02T16:12:32.409Z,16.76
2022-10-02T16:17:43.034Z,16.57
2022-10-02T16:22:58.618Z,16.37
2022-10-02T16:28:39.446Z,16.25
2022-10-02T16:34:02.429Z,16.13
2022-10-02T16:39:16.331Z,15.93
2022-10-02T16:44:44.565Z,15.74
2022-10-02T16:50:11.083Z,15.59
2022-10-02T16:55:44.034Z,15.43
2022-10-02T17:00:57.495Z,15.29
2022-10-02T17:06:05.528Z,15.21
2022-10-02T17:11:11.965Z,15.12
2022-10-02T17:16:21.631Z,15.14
2022-10-02T17:21:37.710Z,15.05
2022-10-02T17:26:47.191Z,14.95
2022-10-02T17:31:58.646Z,14.88
2022-10-02T17:37:03.865Z,14.87
2022-10-02T17:42:41.274Z,14.82
2022-10-02T17:47:58.534Z,14.78
2022-10-02T17:53:51.996Z,14.73
2022-10-02T17:59:21.059Z,14.58
2022-10-02T18:04:48.023Z,14.42
2022-10-02T18:10:13.213Z,14.29
2022-10-02T18:15:26.131Z,14.17
2022-10-02T18:20:35.510Z,14.08
2022-10-02T18:26:03.131Z,13.99
2022-10-02T18:31:55.132Z,13.92
2022-10-02T18:37:43.081Z,13.82
2022-10-02T18:43:15.635Z,13.74
2022-10-02T18:48:42.560Z,13.66
2022-10-02T18:53:53.882Z,13.57
2022-10-02T18:58:58.955Z,13.51
2022-10-02T19:04:11.723Z,13.45
2022-10-02T19:09:21.457Z,13.38
2022-10-02T19:14:26.003Z,13.36
2022-10-02T19:19:29.264Z,13.28
2022-10-02T19:24:35.051Z,13.24
2022-10-02T19:29:57.844Z,13.26
2022-10-02T19:35:01.583Z,13.30
2022-10-02T19:40:04.017Z,13.32
2022-10-02T19:45:25.495Z,13.24
2022-10-02T19:50:37.815Z,13.11
2022-10-02T19:55:46.448Z,13.12
2022-10-02T20:00:53.101Z,13.09
2022-10-02T20:06:00.981Z,13.14
2022-10-02T20:11:15.432Z,13.06
2022-10-02T20:16:36.655Z,12.99
2022-10-02T20:21:40.955Z,12.91
2022-10-02T20:26:47.345Z,12.82
2022-10-02T20:31:59.655Z,12.76
2022-10-02T20:37:12.038Z,12.71
2022-10-02T20:42:19.985Z,12.66
2022-10-02T20:47:43.505Z,12.62
2022-10-02T20:52:54.465Z,12.61
2022-10-02T20:58:33.345Z,12.51
2022-10-02T21:03:56.703Z,12.42
2022-10-02T21:09:19.560Z,12.35
2022-10-02T21:14:43.472Z,12.35
2022-10-02T21:19:46.249Z,12.30
2022-10-02T21:24:56.842Z,12.29
2022-10-02T21:30:16.373Z,12.24
2022-10-02T21:35:38.951Z,12.20
2022-10-02T21:41:07.225Z,12.18
2022-10-02T21:46:27.104Z,12.14
2022-10-02T21:52:08.757Z,12.14
2022-10-02T21:57:44.529Z,12.10
2022-10-02T22:03:50.502Z,12.07
2022-10-02T22:09:11.563Z,12.05
2022-10-02T22:14:27.992Z,11.99
2022-10-02T22:19:47.719Z,11.93
2022-10-02T22:25:04.442Z,11.86
2022-10-02T22:30:29.536Z,11.80
2022-10-02T22:35:57.800Z,11.73
2022-10-02T22:41:14.698Z,11.68
2022-10-02T22:46:21.215Z,11.59
2022-10-02T22:51:34.567Z,11.52
2022-10-02T22:56:42.902Z,11.43
2022-10-02T23:02:05.484Z,11.36
2022-10-02T23:07:19.011Z,11.30
2022-10-02T23:12:54.846Z,11.31
2022-10-02T23:18:16.476Z,11.29
2022-10-02T23:23:23.260Z,11.17
2022-10-02T23:28:52.060Z,11.04
2022-10-02T23:34:41.289Z,11.05
2022-10-02T23:39:56.946Z,11.12
2022-10-02T23:45:11.062Z,11.21
2022-10-02T23:51:01.954Z,11.31
2022-10-02T23:56:16.831Z,11.33
